Terminal Aerodrome Forecast
Issued by NWS

Home | Current Version | Previous Version | Text Only | Print | Product List | Glossary On
Versions: 1 2 3 4 5 6 7 8 9 10 11 12 13 14 15 16 17
427
FTUS43 KFGF 280826 AAB
TAFBJI
TAF AMD
KBJI 280826Z 2808/2906 VRB03KT 3/4SM BR OVC004
      TEMPO 2808/2811 1/4SM FG
     FM281100 VRB03KT 1/4SM FG OVC004
     FM281400 15005KT P6SM SCT015
     FM281700 15009KT P6SM BKN200=

USA.gov is the U.S. government's official web portal to all federal, state and local government web resources and services.